createdAt,value
2022-12-31T00:00:47.461Z,100076.00
2022-12-31T00:03:21.265Z,100084.31
2022-12-31T00:05:52.049Z,100087.77
2022-12-31T00:08:24.195Z,100088.73
2022-12-31T00:10:55.765Z,100093.56
2022-12-31T00:13:24.796Z,100091.23
2022-12-31T00:15:56.803Z,100089.75
2022-12-31T00:18:29.711Z,100095.75
2022-12-31T00:21:02.480Z,100092.90
2022-12-31T00:23:34.879Z,100093.12
2022-12-31T00:26:13.885Z,100098.88
2022-12-31T00:28:46.117Z,100095.84
2022-12-31T00:31:19.219Z,100102.45
2022-12-31T00:33:51.604Z,100110.21
2022-12-31T00:36:27.616Z,100112.41
2022-12-31T00:39:01.704Z,100118.36
2022-12-31T00:41:35.504Z,100118.44
2022-12-31T00:44:08.683Z,100120.55
2022-12-31T00:49:13.421Z,100113.89
2022-12-31T00:51:46.867Z,100115.70
2022-12-31T00:54:24.174Z,100115.71
2022-12-31T00:56:55.769Z,100115.97
2022-12-31T00:59:27.419Z,100118.66
2022-12-31T01:01:59.857Z,100128.66
2022-12-31T01:04:31.424Z,100128.77
2022-12-31T01:07:02.317Z,100128.25
2022-12-31T01:09:34.218Z,100131.02
2022-12-31T01:12:09.142Z,100132.88
2022-12-31T01:14:41.229Z,100132.89
2022-12-31T01:17:13.479Z,100139.39
2022-12-31T01:19:49.949Z,100146.41
2022-12-31T01:22:24.842Z,100153.30
2022-12-31T01:24:55.283Z,100156.75
2022-12-31T01:27:26.683Z,100150.14
2022-12-31T01:29:58.926Z,100153.27
2022-12-31T01:32:31.169Z,100161.81
2022-12-31T01:35:02.712Z,100167.65
2022-12-31T01:37:36.766Z,100171.79
2022-12-31T01:40:12.062Z,100172.95
2022-12-31T01:42:43.036Z,100169.63
2022-12-31T01:45:16.607Z,100171.67
2022-12-31T01:47:54.340Z,100172.78
2022-12-31T01:50:31.770Z,100182.12
2022-12-31T01:53:09.034Z,100185.17
2022-12-31T01:55:46.224Z,100184.08
2022-12-31T01:58:25.144Z,100183.95
2022-12-31T02:00:56.226Z,100184.20
2022-12-31T02:03:30.521Z,100187.70
2022-12-31T02:06:09.344Z,100186.00
2022-12-31T02:08:42.448Z,100186.23
2022-12-31T02:11:36.685Z,100190.33
2022-12-31T02:14:12.778Z,100189.38
2022-12-31T02:16:55.043Z,100184.95
2022-12-31T02:19:57.396Z,100189.58
2022-12-31T02:22:48.860Z,100190.41
2022-12-31T02:25:27.367Z,100180.02
2022-12-31T02:28:16.329Z,100182.91
2022-12-31T02:30:50.372Z,100180.88
2022-12-31T02:33:31.909Z,100172.14
2022-12-31T02:36:06.440Z,100170.81
2022-12-31T02:38:44.047Z,100175.14
2022-12-31T02:41:34.208Z,100186.21
2022-12-31T02:44:22.382Z,100186.56
2022-12-31T02:47:01.758Z,100188.66
2022-12-31T02:49:43.827Z,100183.84
2022-12-31T02:52:23.167Z,100184.62
2022-12-31T02:55:04.523Z,100193.18
2022-12-31T02:57:43.494Z,100202.68
2022-12-31T03:00:34.405Z,100212.06
2022-12-31T03:03:06.898Z,100213.59
2022-12-31T03:05:41.542Z,100217.88
2022-12-31T03:08:12.342Z,100211.39
2022-12-31T03:10:43.612Z,100215.19
2022-12-31T03:13:18.262Z,100217.65
2022-12-31T03:15:51.982Z,100219.19
2022-12-31T03:18:43.405Z,100217.13
2022-12-31T03:21:37.943Z,100220.88
2022-12-31T03:24:26.160Z,100217.09
2022-12-31T03:26:59.566Z,100213.16
2022-12-31T03:29:31.547Z,100217.33
2022-12-31T03:32:01.999Z,100214.58
2022-12-31T03:34:36.167Z,100214.00
2022-12-31T03:37:07.083Z,100213.39
2022-12-31T03:39:41.101Z,100210.08
2022-12-31T03:42:13.139Z,100205.34
2022-12-31T03:44:45.160Z,100207.92
2022-12-31T03:47:17.907Z,100211.33
2022-12-31T03:49:49.287Z,100209.47
2022-12-31T03:52:22.959Z,100205.64
2022-12-31T03:54:57.136Z,100203.77
2022-12-31T03:57:28.095Z,100196.56
2022-12-31T03:59:58.920Z,100194.19
2022-12-31T04:02:32.265Z,100189.16
2022-12-31T04:05:06.325Z,100193.10
2022-12-31T04:07:41.584Z,100187.94
2022-12-31T04:10:15.375Z,100191.05
2022-12-31T04:12:47.115Z,100191.95
2022-12-31T04:15:23.435Z,100186.02
2022-12-31T04:17:57.685Z,100190.69
2022-12-31T04:20:29.735Z,100201.05
2022-12-31T04:23:01.145Z,100208.33
2022-12-31T04:25:34.301Z,100206.75
2022-12-31T04:28:07.866Z,100214.31
2022-12-31T04:30:53.330Z,100217.55
2022-12-31T04:33:24.730Z,100227.02
2022-12-31T04:36:02.040Z,100227.94
2022-12-31T04:38:36.058Z,100228.64
2022-12-31T04:41:18.415Z,100232.41
2022-12-31T04:43:53.833Z,100233.06
2022-12-31T04:46:29.835Z,100236.01
2022-12-31T04:49:01.654Z,100239.84
2022-12-31T04:51:38.577Z,100238.58
2022-12-31T04:54:11.971Z,100234.93
2022-12-31T04:56:43.772Z,100234.55
2022-12-31T04:59:14.226Z,100232.65
2022-12-31T05:01:45.135Z,100236.66
2022-12-31T05:04:17.451Z,100230.67
2022-12-31T05:06:50.729Z,100233.41
2022-12-31T05:09:24.913Z,100228.84
2022-12-31T05:11:59.318Z,100234.55
2022-12-31T05:14:31.876Z,100237.58
2022-12-31T05:17:02.954Z,100241.86
2022-12-31T05:19:33.346Z,100253.34
2022-12-31T05:22:21.395Z,100257.38
2022-12-31T05:24:52.631Z,100264.77
2022-12-31T05:27:24.289Z,100265.86
2022-12-31T05:29:57.436Z,100256.25
2022-12-31T05:32:32.162Z,100240.05
2022-12-31T05:35:07.189Z,100237.73
2022-12-31T05:37:38.173Z,100235.80
2022-12-31T05:40:12.070Z,100238.15
2022-12-31T05:42:43.401Z,100238.40
2022-12-31T05:45:14.549Z,100241.85
2022-12-31T05:47:46.220Z,100245.95
2022-12-31T05:50:18.639Z,100256.33
2022-12-31T05:52:49.886Z,100260.66
2022-12-31T05:55:21.189Z,100262.11
2022-12-31T05:57:50.556Z,100256.90
2022-12-31T06:00:21.772Z,100266.94
2022-12-31T06:02:52.583Z,100252.38
2022-12-31T06:05:26.298Z,100260.48
2022-12-31T06:07:57.523Z,100268.34
2022-12-31T06:10:29.028Z,100271.61
2022-12-31T06:13:02.718Z,100280.80
2022-12-31T06:15:34.486Z,100278.70
2022-12-31T06:18:09.682Z,100283.04
2022-12-31T06:20:41.519Z,100282.83
2022-12-31T06:23:13.729Z,100278.48
2022-12-31T06:25:45.275Z,100279.86
2022-12-31T06:28:20.576Z,100276.69
2022-12-31T06:31:00.163Z,100276.39
2022-12-31T06:33:32.433Z,100284.59
2022-12-31T06:36:07.328Z,100283.71
2022-12-31T06:38:40.542Z,100292.92
2022-12-31T06:41:14.524Z,100297.72
2022-12-31T06:43:46.904Z,100294.06
2022-12-31T06:46:19.432Z,100294.56
2022-12-31T06:48:53.505Z,100295.77
2022-12-31T06:51:24.803Z,100299.63
2022-12-31T06:53:55.260Z,100298.98
2022-12-31T06:56:34.475Z,100302.12
2022-12-31T06:59:07.573Z,100295.06
2022-12-31T07:01:52.197Z,100292.32
2022-12-31T07:04:56.714Z,100291.92
2022-12-31T07:07:34.395Z,100295.48
2022-12-31T07:10:15.593Z,100296.10
2022-12-31T07:12:58.955Z,100297.83
2022-12-31T07:15:47.652Z,100305.71
2022-12-31T07:18:32.631Z,100306.15
2022-12-31T07:21:04.601Z,100306.11
2022-12-31T07:23:37.155Z,100309.68
2022-12-31T07:26:17.404Z,100311.84
2022-12-31T07:28:58.907Z,100313.67
2022-12-31T07:31:50.913Z,100320.68
2022-12-31T07:34:28.178Z,100334.52
2022-12-31T07:37:08.972Z,100330.08
2022-12-31T07:39:47.469Z,100326.39
2022-12-31T07:42:26.366Z,100327.38
2022-12-31T07:45:08.231Z,100326.29
2022-12-31T07:47:39.439Z,100326.71
2022-12-31T07:50:17.639Z,100335.36
2022-12-31T07:52:48.953Z,100341.54
2022-12-31T07:55:17.878Z,100345.61
2022-12-31T07:58:07.236Z,100353.87
2022-12-31T08:00:37.907Z,100357.42
2022-12-31T08:03:19.145Z,100352.02
2022-12-31T08:05:55.549Z,100356.08
2022-12-31T08:08:36.434Z,100359.25
2022-12-31T08:11:17.346Z,100360.09
2022-12-31T08:14:08.610Z,100370.00
2022-12-31T08:16:53.011Z,100380.48
2022-12-31T08:19:27.049Z,100380.23
2022-12-31T08:22:16.912Z,100376.83
2022-12-31T08:24:59.142Z,100376.35
2022-12-31T08:27:38.000Z,100374.66
2022-12-31T08:30:13.293Z,100374.15
2022-12-31T08:32:47.713Z,100380.73
2022-12-31T08:35:29.728Z,100386.89
2022-12-31T08:38:10.215Z,100381.05
2022-12-31T08:40:50.402Z,100396.33
2022-12-31T08:43:38.400Z,100391.76
2022-12-31T08:46:15.356Z,100392.48
2022-12-31T08:48:48.331Z,100394.92
2022-12-31T08:51:23.030Z,100401.25
2022-12-31T08:53:55.221Z,100401.05
2022-12-31T08:56:32.730Z,100403.69
2022-12-31T08:59:22.716Z,100401.60
2022-12-31T09:02:20.753Z,100398.30
2022-12-31T09:05:05.187Z,100407.07
2022-12-31T09:07:40.847Z,100404.00
2022-12-31T09:10:19.330Z,100411.27
2022-12-31T09:13:00.187Z,100409.69
2022-12-31T09:15:37.106Z,100406.71
2022-12-31T09:18:09.257Z,100409.77
2022-12-31T09:20:43.323Z,100409.81
2022-12-31T09:23:15.382Z,100400.64
2022-12-31T09:25:52.159Z,100406.36
2022-12-31T09:28:35.170Z,100401.33
2022-12-31T09:31:12.328Z,100404.13
2022-12-31T09:33:50.165Z,100409.01
2022-12-31T09:36:27.836Z,100420.92
2022-12-31T09:39:10.229Z,100421.15
2022-12-31T09:42:03.840Z,100430.85
2022-12-31T09:45:11.837Z,100423.42
2022-12-31T09:48:07.637Z,100423.05
2022-12-31T09:50:55.345Z,100425.02
2022-12-31T09:53:56.160Z,100423.17
2022-12-31T09:56:30.482Z,100420.21
2022-12-31T09:59:07.023Z,100423.64
2022-12-31T10:01:51.549Z,100421.79
2022-12-31T10:04:49.950Z,100425.23
2022-12-31T10:07:39.596Z,100421.59
2022-12-31T10:10:19.524Z,100419.97
2022-12-31T10:13:10.859Z,100413.83
2022-12-31T10:15:59.984Z,100415.77
2022-12-31T10:18:47.701Z,100415.15
2022-12-31T10:21:33.828Z,100411.23
2022-12-31T10:24:25.047Z,100421.48
2022-12-31T10:27:14.109Z,100420.84
2022-12-31T10:29:49.710Z,100420.90
2022-12-31T10:32:31.675Z,100421.48
2022-12-31T10:35:20.994Z,100420.08
2022-12-31T10:38:00.509Z,100416.16
2022-12-31T10:40:48.234Z,100412.14
2022-12-31T10:43:42.889Z,100406.94
2022-12-31T10:46:33.139Z,100410.56
2022-12-31T10:49:24.274Z,100407.91
2022-12-31T10:52:38.172Z,100407.62
2022-12-31T10:56:02.613Z,100410.64
2022-12-31T10:59:16.277Z,100405.20
2022-12-31T11:02:01.177Z,100401.08
2022-12-31T11:05:22.865Z,100396.14
2022-12-31T11:08:08.377Z,100393.69
2022-12-31T11:11:04.176Z,100393.15
2022-12-31T11:14:17.036Z,100400.59
2022-12-31T11:17:06.121Z,100407.88
2022-12-31T11:19:43.585Z,100410.02
2022-12-31T11:22:27.652Z,100408.16
2022-12-31T11:25:23.763Z,100406.27
2022-12-31T11:28:09.468Z,100406.50
2022-12-31T11:30:56.564Z,100409.57
2022-12-31T11:33:48.443Z,100405.23
2022-12-31T11:36:34.106Z,100404.51
2022-12-31T11:39:30.775Z,100395.48
2022-12-31T11:42:14.939Z,100395.02
2022-12-31T11:44:52.852Z,100386.02
2022-12-31T11:50:52.603Z,100377.99
2022-12-31T11:53:41.084Z,100369.39
2022-12-31T11:56:19.151Z,100361.46
2022-12-31T11:58:52.390Z,100363.49
2022-12-31T12:01:33.248Z,100352.75
2022-12-31T12:04:04.547Z,100347.70
2022-12-31T12:06:37.957Z,100343.14
2022-12-31T12:09:14.504Z,100344.16
2022-12-31T12:11:45.482Z,100338.77
2022-12-31T12:14:23.291Z,100340.12
2022-12-31T12:17:04.410Z,100343.11
2022-12-31T12:19:42.833Z,100352.16
2022-12-31T12:22:20.829Z,100355.71
2022-12-31T12:24:57.665Z,100354.09
2022-12-31T12:27:31.247Z,100354.21
2022-12-31T12:30:11.515Z,100357.21
2022-12-31T12:32:51.885Z,100348.04
2022-12-31T12:35:29.372Z,100347.96
2022-12-31T12:38:05.315Z,100351.76
2022-12-31T12:40:36.751Z,100347.58
2022-12-31T12:43:07.516Z,100348.77
2022-12-31T12:45:51.155Z,100354.66
2022-12-31T12:48:32.518Z,100350.27
2022-12-31T12:51:10.147Z,100342.41
2022-12-31T12:53:53.237Z,100339.49
2022-12-31T12:56:35.799Z,100335.83
2022-12-31T12:59:23.761Z,100332.48
2022-12-31T13:02:04.202Z,100331.89
2022-12-31T13:04:47.457Z,100328.61
2022-12-31T13:07:29.695Z,100333.88
2022-12-31T13:10:16.672Z,100332.13
2022-12-31T13:15:52.556Z,100330.96
2022-12-31T13:18:36.316Z,100330.68
2022-12-31T13:21:20.394Z,100334.18
2022-12-31T13:23:56.994Z,100326.40
2022-12-31T13:26:35.072Z,100319.80
2022-12-31T13:29:07.060Z,100315.39
2022-12-31T13:31:41.396Z,100310.61
2022-12-31T13:34:18.850Z,100311.69
2022-12-31T13:36:52.627Z,100318.75
2022-12-31T13:39:28.514Z,100319.35
2022-12-31T13:42:04.626Z,100318.57
2022-12-31T13:44:39.827Z,100320.98
2022-12-31T13:47:17.102Z,100324.61
2022-12-31T13:49:52.001Z,100323.30
2022-12-31T13:52:33.300Z,100323.45
2022-12-31T13:55:05.302Z,100319.78
2022-12-31T13:57:44.817Z,100319.15
2022-12-31T14:00:22.938Z,100315.42
2022-12-31T14:03:03.254Z,100317.45
2022-12-31T14:05:39.354Z,100319.36
2022-12-31T14:08:11.809Z,100317.55
2022-12-31T14:10:58.651Z,100314.35
2022-12-31T14:13:41.954Z,100313.23
2022-12-31T14:16:25.631Z,100318.24
2022-12-31T14:19:06.648Z,100312.16
2022-12-31T14:21:44.948Z,100306.04
2022-12-31T14:24:22.495Z,100302.96
2022-12-31T14:26:57.795Z,100305.79
2022-12-31T14:29:39.792Z,100307.94
2022-12-31T14:32:47.006Z,100309.45
2022-12-31T14:38:48.583Z,100313.09
2022-12-31T14:41:37.323Z,100320.14
2022-12-31T14:44:21.015Z,100317.50
2022-12-31T14:47:08.753Z,100323.73
2022-12-31T14:49:49.187Z,100324.08
2022-12-31T14:52:31.255Z,100328.06
2022-12-31T14:55:04.269Z,100331.05
2022-12-31T14:58:25.322Z,100331.88
2022-12-31T15:00:35.132Z,100329.77
2022-12-31T15:03:08.367Z,100330.00
2022-12-31T15:05:51.234Z,100333.74
2022-12-31T15:08:34.437Z,100335.84
2022-12-31T15:11:27.932Z,100329.05
2022-12-31T15:14:21.317Z,100329.50
2022-12-31T15:16:59.182Z,100333.40
2022-12-31T15:20:14.989Z,100332.14
2022-12-31T15:22:49.902Z,100335.83
2022-12-31T15:25:38.366Z,100334.67
2022-12-31T15:28:27.572Z,100335.38
2022-12-31T15:31:03.678Z,100337.33
2022-12-31T15:33:38.687Z,100338.59
2022-12-31T15:36:18.792Z,100339.36
2022-12-31T15:38:49.841Z,100342.73
2022-12-31T15:41:29.482Z,100347.93
2022-12-31T15:44:07.737Z,100350.56
2022-12-31T15:46:42.428Z,100357.23
2022-12-31T15:49:18.190Z,100353.88
2022-12-31T15:51:52.428Z,100361.72
2022-12-31T15:54:31.120Z,100362.44
2022-12-31T15:57:08.925Z,100366.99
2022-12-31T15:59:41.843Z,100367.97
2022-12-31T16:02:22.972Z,100370.31
2022-12-31T16:04:56.094Z,100371.04
2022-12-31T16:07:29.070Z,100370.11
2022-12-31T16:10:10.265Z,100366.92
2022-12-31T16:12:44.771Z,100369.39
2022-12-31T16:15:23.510Z,100375.34
2022-12-31T16:18:06.020Z,100376.52
2022-12-31T16:20:44.281Z,100379.55
2022-12-31T16:23:22.666Z,100380.48
2022-12-31T16:25:55.433Z,100379.64
2022-12-31T16:28:30.780Z,100385.52
2022-12-31T16:31:04.501Z,100388.45
2022-12-31T16:33:35.316Z,100383.64
2022-12-31T16:36:06.114Z,100386.67
2022-12-31T16:38:38.115Z,100388.67
2022-12-31T16:41:19.951Z,100390.63
2022-12-31T16:43:51.638Z,100395.30
2022-12-31T16:46:27.171Z,100400.61
2022-12-31T16:48:59.849Z,100399.83
2022-12-31T16:51:33.737Z,100398.37
2022-12-31T16:54:05.946Z,100394.39
2022-12-31T16:56:38.540Z,100397.06
2022-12-31T16:59:16.356Z,100392.34
2022-12-31T17:01:47.369Z,100390.68
2022-12-31T17:04:21.067Z,100387.99
2022-12-31T17:06:51.700Z,100384.86
2022-12-31T17:09:23.368Z,100384.09
2022-12-31T17:11:56.237Z,100385.36
2022-12-31T17:14:28.235Z,100377.06
2022-12-31T17:17:03.645Z,100382.34
2022-12-31T17:19:44.819Z,100383.05
2022-12-31T17:22:32.905Z,100383.67
2022-12-31T17:25:08.626Z,100386.79
2022-12-31T17:27:39.366Z,100383.12
2022-12-31T17:30:40.156Z,100380.43
2022-12-31T17:33:33.714Z,100374.23
2022-12-31T17:36:21.929Z,100380.96
2022-12-31T17:39:45.265Z,100386.13
2022-12-31T17:42:16.054Z,100379.82
2022-12-31T17:44:46.530Z,100385.42
2022-12-31T17:47:16.972Z,100382.91
2022-12-31T17:49:48.275Z,100389.23
2022-12-31T17:52:17.184Z,100386.64
2022-12-31T17:54:47.664Z,100389.23
2022-12-31T17:57:25.639Z,100394.52
2022-12-31T17:59:56.211Z,100399.51
2022-12-31T18:02:26.691Z,100403.05
2022-12-31T18:04:57.067Z,100408.08
2022-12-31T18:07:27.693Z,100402.73
2022-12-31T18:09:58.127Z,100402.41
2022-12-31T18:12:28.526Z,100404.33
2022-12-31T18:14:58.951Z,100406.48
2022-12-31T18:17:30.571Z,100410.45
2022-12-31T18:20:05.841Z,100412.91
2022-12-31T18:22:37.607Z,100414.92
2022-12-31T18:25:08.989Z,100417.77
2022-12-31T18:27:41.866Z,100419.23
2022-12-31T18:30:16.330Z,100423.47
2022-12-31T18:32:47.775Z,100422.45
2022-12-31T18:35:48.688Z,100425.97
2022-12-31T18:38:14.767Z,100432.58
2022-12-31T18:40:47.657Z,100436.62
2022-12-31T18:43:20.199Z,100436.73
2022-12-31T18:45:51.978Z,100437.64
2022-12-31T18:48:22.443Z,100439.27
2022-12-31T18:50:53.072Z,100441.25
2022-12-31T18:53:25.060Z,100445.55
2022-12-31T18:55:57.567Z,100447.56
2022-12-31T18:58:27.944Z,100453.11
2022-12-31T19:00:58.487Z,100459.17
2022-12-31T19:03:29.172Z,100459.02
2022-12-31T19:05:59.646Z,100457.94
2022-12-31T19:08:31.766Z,100457.15
2022-12-31T19:11:03.997Z,100455.02
2022-12-31T19:13:34.403Z,100453.36
2022-12-31T19:16:04.839Z,100452.52
2022-12-31T19:18:36.162Z,100448.99
2022-12-31T19:21:07.128Z,100451.41
2022-12-31T19:23:37.433Z,100450.91
2022-12-31T19:26:08.173Z,100454.59
2022-12-31T19:28:38.550Z,100452.98
2022-12-31T19:31:09.091Z,100445.85
2022-12-31T19:33:39.678Z,100445.92
2022-12-31T19:36:17.558Z,100442.55
2022-12-31T19:38:48.258Z,100448.86
2022-12-31T19:41:20.854Z,100444.00
2022-12-31T19:43:52.001Z,100441.90
2022-12-31T19:46:24.348Z,100443.49
2022-12-31T19:48:54.870Z,100444.67
2022-12-31T19:51:25.239Z,100434.56
2022-12-31T19:53:55.586Z,100434.92
2022-12-31T19:56:25.985Z,100436.76
2022-12-31T19:58:56.398Z,100435.77
2022-12-31T20:01:27.144Z,100434.58
2022-12-31T20:03:57.772Z,100437.28
2022-12-31T20:06:28.312Z,100441.90
2022-12-31T20:08:58.690Z,100441.85
2022-12-31T20:11:29.186Z,100441.77
2022-12-31T20:13:59.561Z,100440.33
2022-12-31T20:16:31.676Z,100440.31
2022-12-31T20:19:02.359Z,100442.92
2022-12-31T20:21:32.783Z,100444.71
2022-12-31T20:24:03.179Z,100439.95
2022-12-31T20:26:33.900Z,100445.87
2022-12-31T20:29:04.476Z,100447.27
2022-12-31T20:31:34.953Z,100449.77
2022-12-31T20:34:05.379Z,100449.81
2022-12-31T20:36:35.791Z,100453.98
2022-12-31T20:39:06.342Z,100453.94
2022-12-31T20:41:36.721Z,100455.16
2022-12-31T20:44:08.076Z,100458.46
2022-12-31T20:46:38.621Z,100462.24
2022-12-31T20:49:11.080Z,100459.02
2022-12-31T20:51:41.559Z,100461.42
2022-12-31T20:54:12.732Z,100458.91
2022-12-31T20:56:43.422Z,100452.04
2022-12-31T20:59:14.144Z,100450.77
2022-12-31T21:02:19.482Z,100450.27
2022-12-31T21:04:35.096Z,100452.16
2022-12-31T21:07:05.609Z,100462.25
2022-12-31T21:09:36.086Z,100462.43
2022-12-31T21:12:35.798Z,100460.67
2022-12-31T21:15:07.273Z,100455.61
2022-12-31T21:17:37.699Z,100457.55
2022-12-31T21:20:10.301Z,100456.84
2022-12-31T21:22:40.781Z,100459.22
2022-12-31T21:25:12.355Z,100460.73
2022-12-31T21:27:43.008Z,100453.05
2022-12-31T21:30:18.827Z,100455.92
2022-12-31T21:32:49.834Z,100465.94
2022-12-31T21:38:11.377Z,100463.31
2022-12-31T21:40:41.950Z,100461.80
2022-12-31T21:43:12.530Z,100463.17
2022-12-31T21:45:43.457Z,100464.98
2022-12-31T21:48:22.047Z,100471.83
2022-12-31T21:50:54.699Z,100476.23
2022-12-31T21:53:33.937Z,100478.07
2022-12-31T21:56:11.502Z,100474.02
2022-12-31T21:58:44.103Z,100479.93
2022-12-31T22:01:36.003Z,100482.38
2022-12-31T22:04:22.154Z,100487.16
2022-12-31T22:06:58.502Z,100493.73
2022-12-31T22:09:28.889Z,100495.27
2022-12-31T22:11:59.446Z,100504.86
2022-12-31T22:14:29.996Z,100503.74
2022-12-31T22:17:00.457Z,100500.06
2022-12-31T22:19:31.004Z,100502.16
2022-12-31T22:22:01.465Z,100499.38
2022-12-31T22:24:31.759Z,100505.52
2022-12-31T22:27:28.413Z,100506.86
2022-12-31T22:29:53.057Z,100503.37
2022-12-31T22:32:23.571Z,100502.78
2022-12-31T22:34:54.021Z,100510.95
2022-12-31T22:37:55.713Z,100516.84
2022-12-31T22:40:15.538Z,100523.28
2022-12-31T22:42:45.983Z,100527.52
2022-12-31T22:45:16.427Z,100527.53
2022-12-31T22:47:46.964Z,100533.84
2022-12-31T22:50:17.398Z,100537.81
2022-12-31T22:52:47.845Z,100537.45
2022-12-31T22:55:18.397Z,100539.98
2022-12-31T22:57:48.968Z,100536.57
2022-12-31T23:00:19.567Z,100534.04
2022-12-31T23:02:49.999Z,100536.15
2022-12-31T23:05:20.565Z,100531.98
2022-12-31T23:07:51.104Z,100532.41
2022-12-31T23:10:39.059Z,100537.86
2022-12-31T23:13:27.059Z,100543.67
2022-12-31T23:16:15.555Z,100541.33
2022-12-31T23:19:05.688Z,100538.49
2022-12-31T23:21:54.552Z,100541.13
2022-12-31T23:24:26.786Z,100543.63
2022-12-31T23:26:58.159Z,100544.46
2022-12-31T23:29:27.355Z,100545.14
2022-12-31T23:31:58.010Z,100536.27
2022-12-31T23:34:28.407Z,100537.95
2022-12-31T23:36:59.149Z,100544.93
2022-12-31T23:39:29.767Z,100535.23
2022-12-31T23:42:02.380Z,100535.83
2022-12-31T23:44:33.787Z,100536.19
2022-12-31T23:47:04.941Z,100538.45
2022-12-31T23:49:35.384Z,100544.96
2022-12-31T23:52:06.050Z,100549.70
2022-12-31T23:54:36.620Z,100550.67
2022-12-31T23:57:07.466Z,100549.31
2022-12-31T23:59:37.889Z,100546.27
